IWG007 LEVC-LEST
Flight info
| Callsign | IWG007 |
|---|---|
| Flight time | 1h 9m |
| Altitude | 33000 |
| Route | CENTA N733 FORNO |
| Aircraft | A20N/M-SDE2E3FGHIJ1RWXY/LB1 |
Departure
| Time | 2026-04-28 10:17 |
|---|---|
| Airport | Valencia Airport (LEVC) |
Arrival
| Time | 2026-04-28 11:26 |
|---|---|
| Airport | Santiago-Rosalía de Castro Airport (LEST) |
| Time | Latitude | Longitude | Altitude | Speed | Heading |
|---|---|---|---|---|---|
| 2026-04-28 10:02 | 39.49025 | -0.47500 | 209 ft | 2 kts | 68° |
| 2026-04-28 10:02 | 39.49021 | -0.47521 | 209 ft | 2 kts | 90° |
| 2026-04-28 10:02 | 39.49023 | -0.47542 | 214 ft | 2 kts | 113° |
| 2026-04-28 10:03 | 39.49028 | -0.47554 | 211 ft | 1 kts | 117° |
| 2026-04-28 10:03 | 39.49028 | -0.47555 | 210 ft | 0 kts | 117° |
| 2026-04-28 10:06 | 39.49019 | -0.47532 | 213 ft | 8 kts | 117° |
| 2026-04-28 10:06 | 39.48985 | -0.47448 | 209 ft | 13 kts | 115° |
| 2026-04-28 10:06 | 39.48943 | -0.47334 | 210 ft | 15 kts | 115° |
| 2026-04-28 10:06 | 39.48869 | -0.47232 | 212 ft | 17 kts | 155° |
| 2026-04-28 10:07 | 39.48760 | -0.47155 | 215 ft | 19 kts | 135° |
| 2026-04-28 10:07 | 39.48693 | -0.47003 | 211 ft | 20 kts | 115° |
| 2026-04-28 10:07 | 39.48627 | -0.46834 | 211 ft | 22 kts | 122° |
| 2026-04-28 10:07 | 39.48522 | -0.46703 | 211 ft | 16 kts | 154° |
| 2026-04-28 10:08 | 39.48472 | -0.46687 | 210 ft | 0 kts | 175° |
| 2026-04-28 10:15 | 39.48465 | -0.46686 | 210 ft | 5 kts | 175° |
| 2026-04-28 10:16 | 39.48415 | -0.46701 | 216 ft | 9 kts | 232° |
| 2026-04-28 10:16 | 39.48410 | -0.46784 | 212 ft | 13 kts | 292° |
| 2026-04-28 10:16 | 39.48539 | -0.47121 | 213 ft | 77 kts | 296° |
| 2026-04-28 10:16 | 39.48870 | -0.47997 | 213 ft | 136 kts | 296° |
| 2026-04-28 10:17 | 39.49347 | -0.49266 | 329 ft | 170 kts | 296° |
| 2026-04-28 10:17 | 39.49891 | -0.50652 | 936 ft | 174 kts | 299° |
| 2026-04-28 10:17 | 39.50503 | -0.52050 | 1546 ft | 182 kts | 300° |
| 2026-04-28 10:17 | 39.51115 | -0.53535 | 2139 ft | 194 kts | 297° |
| 2026-04-28 10:18 | 39.51751 | -0.55161 | 2614 ft | 215 kts | 297° |
| 2026-04-28 10:18 | 39.52463 | -0.56994 | 3025 ft | 240 kts | 297° |
| 2026-04-28 10:18 | 39.53241 | -0.59014 | 3618 ft | 261 kts | 298° |
| 2026-04-28 10:18 | 39.54144 | -0.61180 | 4421 ft | 277 kts | 299° |
| 2026-04-28 10:19 | 39.55090 | -0.63336 | 5407 ft | 280 kts | 299° |
| 2026-04-28 10:19 | 39.56077 | -0.65548 | 6500 ft | 283 kts | 298° |
| 2026-04-28 10:19 | 39.57071 | -0.67773 | 7481 ft | 285 kts | 298° |
| 2026-04-28 10:19 | 39.58063 | -0.70009 | 8491 ft | 288 kts | 298° |
| 2026-04-28 10:20 | 39.59048 | -0.72242 | 9475 ft | 290 kts | 298° |
| 2026-04-28 10:20 | 39.60054 | -0.74522 | 10412 ft | 293 kts | 297° |
| 2026-04-28 10:20 | 39.61101 | -0.76903 | 10787 ft | 316 kts | 298° |
| 2026-04-28 10:20 | 39.62232 | -0.79469 | 11119 ft | 337 kts | 298° |
| 2026-04-28 10:21 | 39.63422 | -0.82155 | 11815 ft | 345 kts | 298° |
| 2026-04-28 10:21 | 39.64627 | -0.84868 | 12634 ft | 348 kts | 298° |
| 2026-04-28 10:21 | 39.65829 | -0.87578 | 13448 ft | 352 kts | 298° |
| 2026-04-28 10:21 | 39.66969 | -0.90148 | 14161 ft | 356 kts | 298° |
| 2026-04-28 10:22 | 39.68092 | -0.92683 | 14753 ft | 360 kts | 298° |
| 2026-04-28 10:22 | 39.69351 | -0.95524 | 15490 ft | 364 kts | 298° |
| 2026-04-28 10:22 | 39.70624 | -0.98396 | 16168 ft | 368 kts | 298° |
| 2026-04-28 10:22 | 39.71890 | -1.01269 | 16834 ft | 372 kts | 297° |
| 2026-04-28 10:23 | 39.73176 | -1.04220 | 17508 ft | 376 kts | 297° |
| 2026-04-28 10:23 | 39.74475 | -1.07206 | 18174 ft | 381 kts | 297° |
| 2026-04-28 10:23 | 39.75788 | -1.10223 | 18790 ft | 384 kts | 297° |
| 2026-04-28 10:23 | 39.77090 | -1.13214 | 19376 ft | 387 kts | 297° |
| 2026-04-28 10:24 | 39.78421 | -1.16277 | 19959 ft | 390 kts | 297° |
| 2026-04-28 10:24 | 39.79761 | -1.19362 | 20560 ft | 393 kts | 297° |
| 2026-04-28 10:24 | 39.80970 | -1.22151 | 21077 ft | 396 kts | 297° |
| 2026-04-28 10:24 | 39.82382 | -1.25411 | 21665 ft | 399 kts | 297° |
| 2026-04-28 10:25 | 39.83749 | -1.28566 | 22230 ft | 402 kts | 297° |
| 2026-04-28 10:25 | 39.85131 | -1.31759 | 22775 ft | 406 kts | 297° |
| 2026-04-28 10:25 | 39.86522 | -1.34974 | 23330 ft | 409 kts | 297° |
| 2026-04-28 10:25 | 39.87922 | -1.38217 | 23845 ft | 412 kts | 297° |
| 2026-04-28 10:26 | 39.89311 | -1.41435 | 24339 ft | 414 kts | 297° |
| 2026-04-28 10:26 | 39.90744 | -1.44757 | 24825 ft | 415 kts | 297° |
| 2026-04-28 10:26 | 39.92142 | -1.48007 | 25280 ft | 418 kts | 297° |
| 2026-04-28 10:26 | 39.93562 | -1.51313 | 25734 ft | 419 kts | 297° |
| 2026-04-28 10:27 | 39.94991 | -1.54639 | 26165 ft | 422 kts | 297° |
| 2026-04-28 10:27 | 39.96430 | -1.57994 | 26607 ft | 424 kts | 297° |
| 2026-04-28 10:27 | 39.97871 | -1.61356 | 27035 ft | 426 kts | 297° |
| 2026-04-28 10:27 | 39.99318 | -1.64737 | 27449 ft | 428 kts | 297° |
| 2026-04-28 10:28 | 40.00774 | -1.68139 | 27830 ft | 430 kts | 297° |
| 2026-04-28 10:28 | 40.02235 | -1.71559 | 28229 ft | 432 kts | 297° |
| 2026-04-28 10:28 | 40.03699 | -1.74990 | 28604 ft | 434 kts | 297° |
| 2026-04-28 10:29 | 40.06551 | -1.81685 | 29296 ft | 438 kts | 297° |
| 2026-04-28 10:29 | 40.08031 | -1.85165 | 29655 ft | 440 kts | 297° |
| 2026-04-28 10:29 | 40.09521 | -1.88673 | 30023 ft | 442 kts | 297° |
| 2026-04-28 10:29 | 40.10994 | -1.92144 | 30312 ft | 443 kts | 297° |
| 2026-04-28 10:30 | 40.12495 | -1.95686 | 30605 ft | 445 kts | 297° |
| 2026-04-28 10:30 | 40.13998 | -1.99235 | 30911 ft | 447 kts | 297° |
| 2026-04-28 10:30 | 40.15504 | -2.02793 | 31257 ft | 448 kts | 297° |
| 2026-04-28 10:30 | 40.17023 | -2.06363 | 31688 ft | 447 kts | 297° |
| 2026-04-28 10:31 | 40.18537 | -2.09911 | 32117 ft | 446 kts | 297° |
| 2026-04-28 10:31 | 40.20033 | -2.13418 | 32524 ft | 445 kts | 297° |
| 2026-04-28 10:31 | 40.21541 | -2.16962 | 32882 ft | 443 kts | 297° |
| 2026-04-28 10:32 | 40.24523 | -2.24047 | 32976 ft | 442 kts | 297° |
| 2026-04-28 10:32 | 40.27458 | -2.31069 | 32993 ft | 442 kts | 297° |
| 2026-04-28 10:33 | 40.30321 | -2.37925 | 32981 ft | 442 kts | 297° |
| 2026-04-28 10:33 | 40.33166 | -2.44748 | 32975 ft | 442 kts | 297° |
| 2026-04-28 10:34 | 40.36114 | -2.51834 | 32980 ft | 442 kts | 296° |
| 2026-04-28 10:34 | 40.39005 | -2.58921 | 32990 ft | 442 kts | 295° |
| 2026-04-28 10:35 | 40.41813 | -2.66133 | 32978 ft | 443 kts | 295° |
| 2026-04-28 10:35 | 40.44527 | -2.73088 | 32971 ft | 442 kts | 295° |
| 2026-04-28 10:36 | 40.47340 | -2.80284 | 32972 ft | 442 kts | 295° |
| 2026-04-28 10:36 | 40.50148 | -2.87478 | 32977 ft | 443 kts | 295° |
| 2026-04-28 10:37 | 40.52481 | -2.93468 | 32969 ft | 443 kts | 295° |
| 2026-04-28 10:37 | 40.55744 | -3.01869 | 32973 ft | 443 kts | 295° |
| 2026-04-28 10:38 | 40.58078 | -3.07892 | 32993 ft | 443 kts | 295° |
| 2026-04-28 10:38 | 40.60875 | -3.15121 | 32980 ft | 443 kts | 295° |
| 2026-04-28 10:39 | 40.63663 | -3.22350 | 32988 ft | 443 kts | 295° |
| 2026-04-28 10:39 | 40.66440 | -3.29566 | 33001 ft | 442 kts | 295° |
| 2026-04-28 10:40 | 40.69127 | -3.36565 | 32998 ft | 442 kts | 295° |
| 2026-04-28 10:40 | 40.71886 | -3.43771 | 32998 ft | 442 kts | 295° |
| 2026-04-28 10:41 | 40.74566 | -3.50785 | 33007 ft | 441 kts | 295° |
| 2026-04-28 10:41 | 40.77335 | -3.58052 | 33011 ft | 441 kts | 295° |
| 2026-04-28 10:42 | 40.79980 | -3.65008 | 33009 ft | 441 kts | 295° |
| 2026-04-28 10:42 | 40.82730 | -3.72260 | 33027 ft | 440 kts | 295° |
| 2026-04-28 10:43 | 40.85457 | -3.79464 | 33021 ft | 440 kts | 295° |
| 2026-04-28 10:43 | 40.88181 | -3.86686 | 32995 ft | 439 kts | 295° |
| 2026-04-28 10:44 | 40.90910 | -3.93935 | 32990 ft | 439 kts | 295° |
| 2026-04-28 10:44 | 40.93617 | -4.01145 | 32991 ft | 439 kts | 294° |
| 2026-04-28 10:45 | 40.96332 | -4.08394 | 32996 ft | 439 kts | 294° |
| 2026-04-28 10:45 | 40.99039 | -4.15638 | 32986 ft | 439 kts | 294° |
| 2026-04-28 10:46 | 41.01727 | -4.22845 | 32982 ft | 439 kts | 294° |
| 2026-04-28 10:46 | 41.04431 | -4.30109 | 32979 ft | 439 kts | 294° |
| 2026-04-28 10:47 | 41.07112 | -4.37329 | 32974 ft | 438 kts | 294° |
| 2026-04-28 10:47 | 41.09804 | -4.44597 | 32978 ft | 438 kts | 294° |
| 2026-04-28 10:48 | 41.12493 | -4.51877 | 32984 ft | 438 kts | 294° |
| 2026-04-28 10:48 | 41.15064 | -4.58850 | 32974 ft | 438 kts | 294° |
| 2026-04-28 10:49 | 41.17637 | -4.65849 | 32967 ft | 439 kts | 294° |
| 2026-04-28 10:49 | 41.20317 | -4.73166 | 32987 ft | 438 kts | 294° |
| 2026-04-28 10:50 | 41.22973 | -4.80431 | 32972 ft | 438 kts | 294° |
| 2026-04-28 10:50 | 41.25638 | -4.87742 | 32967 ft | 438 kts | 294° |
| 2026-04-28 10:51 | 41.28273 | -4.94989 | 32968 ft | 438 kts | 294° |
| 2026-04-28 10:51 | 41.30927 | -5.02305 | 32970 ft | 437 kts | 293° |
| 2026-04-28 10:52 | 41.33460 | -5.09303 | 32965 ft | 437 kts | 293° |
| 2026-04-28 10:52 | 41.36105 | -5.16634 | 32964 ft | 437 kts | 293° |
| 2026-04-28 10:53 | 41.38717 | -5.23890 | 32974 ft | 437 kts | 293° |
| 2026-04-28 10:53 | 41.41346 | -5.31210 | 32965 ft | 437 kts | 293° |
| 2026-04-28 10:54 | 41.43948 | -5.38476 | 32961 ft | 436 kts | 293° |
| 2026-04-28 10:54 | 41.46556 | -5.45775 | 32977 ft | 436 kts | 293° |
| 2026-04-28 10:55 | 41.49081 | -5.52862 | 32960 ft | 436 kts | 293° |
| 2026-04-28 10:55 | 41.51674 | -5.60156 | 32963 ft | 436 kts | 292° |
| 2026-04-28 10:56 | 41.54712 | -5.67206 | 32973 ft | 439 kts | 302° |
| 2026-04-28 10:56 | 41.58115 | -5.73663 | 32964 ft | 440 kts | 302° |
| 2026-04-28 10:57 | 41.61568 | -5.80273 | 32961 ft | 440 kts | 302° |
| 2026-04-28 10:57 | 41.65070 | -5.86992 | 32968 ft | 440 kts | 302° |
| 2026-04-28 10:58 | 41.68450 | -5.93485 | 32971 ft | 440 kts | 302° |
| 2026-04-28 10:58 | 41.71939 | -6.00202 | 32965 ft | 441 kts | 302° |
| 2026-04-28 10:59 | 41.75425 | -6.06927 | 32957 ft | 441 kts | 302° |
| 2026-04-28 10:59 | 41.78919 | -6.13685 | 32977 ft | 441 kts | 302° |
| 2026-04-28 11:00 | 41.82422 | -6.20473 | 32971 ft | 441 kts | 301° |
| 2026-04-28 11:00 | 41.85896 | -6.27224 | 32958 ft | 441 kts | 301° |
| 2026-04-28 11:01 | 41.89368 | -6.33987 | 32964 ft | 441 kts | 301° |
| 2026-04-28 11:01 | 41.92733 | -6.40557 | 32963 ft | 441 kts | 301° |
| 2026-04-28 11:02 | 41.96194 | -6.47328 | 32953 ft | 440 kts | 301° |
| 2026-04-28 11:02 | 41.99655 | -6.54116 | 32957 ft | 440 kts | 301° |
| 2026-04-28 11:03 | 42.03119 | -6.60924 | 32944 ft | 440 kts | 301° |
| 2026-04-28 11:03 | 42.06558 | -6.67700 | 32947 ft | 440 kts | 301° |
| 2026-04-28 11:04 | 42.10009 | -6.74510 | 32948 ft | 440 kts | 301° |
| 2026-04-28 11:04 | 42.13437 | -6.81292 | 32940 ft | 440 kts | 301° |
| 2026-04-28 11:05 | 42.16892 | -6.88144 | 32950 ft | 440 kts | 301° |
| 2026-04-28 11:05 | 42.20199 | -6.94716 | 32949 ft | 441 kts | 301° |
| 2026-04-28 11:06 | 42.23632 | -7.01558 | 32950 ft | 441 kts | 301° |
| 2026-04-28 11:06 | 42.27083 | -7.08454 | 32946 ft | 441 kts | 301° |
| 2026-04-28 11:07 | 42.30508 | -7.15305 | 32949 ft | 441 kts | 301° |
| 2026-04-28 11:07 | 42.33818 | -7.21935 | 32953 ft | 441 kts | 301° |
| 2026-04-28 11:08 | 42.37134 | -7.28592 | 32947 ft | 441 kts | 300° |
| 2026-04-28 11:08 | 42.40545 | -7.35458 | 32946 ft | 440 kts | 300° |
| 2026-04-28 11:08 | 42.42253 | -7.38902 | 32684 ft | 438 kts | 300° |
| 2026-04-28 11:09 | 42.43957 | -7.42344 | 31968 ft | 440 kts | 300° |
| 2026-04-28 11:09 | 42.45671 | -7.45819 | 30923 ft | 448 kts | 300° |
| 2026-04-28 11:09 | 42.47397 | -7.49322 | 29857 ft | 455 kts | 300° |
| 2026-04-28 11:09 | 42.49171 | -7.52919 | 28816 ft | 458 kts | 301° |
| 2026-04-28 11:10 | 42.50952 | -7.56527 | 27828 ft | 459 kts | 301° |
| 2026-04-28 11:10 | 42.52717 | -7.60105 | 26839 ft | 461 kts | 301° |
| 2026-04-28 11:10 | 42.54501 | -7.63728 | 25808 ft | 463 kts | 301° |
| 2026-04-28 11:10 | 42.56298 | -7.67383 | 24790 ft | 465 kts | 301° |
| 2026-04-28 11:11 | 42.58102 | -7.71059 | 23799 ft | 466 kts | 301° |
| 2026-04-28 11:11 | 42.59873 | -7.74670 | 22927 ft | 462 kts | 301° |
| 2026-04-28 11:11 | 42.61657 | -7.78310 | 22079 ft | 456 kts | 301° |
| 2026-04-28 11:11 | 42.63385 | -7.81841 | 21243 ft | 451 kts | 302° |
| 2026-04-28 11:12 | 42.65123 | -7.85399 | 20401 ft | 447 kts | 302° |
| 2026-04-28 11:12 | 42.66835 | -7.88909 | 19613 ft | 442 kts | 302° |
| 2026-04-28 11:12 | 42.68405 | -7.92134 | 18888 ft | 439 kts | 302° |
| 2026-04-28 11:12 | 42.70080 | -7.95576 | 18143 ft | 434 kts | 302° |
| 2026-04-28 11:13 | 42.71720 | -7.98948 | 17330 ft | 429 kts | 302° |
| 2026-04-28 11:13 | 42.73329 | -8.02260 | 16556 ft | 425 kts | 302° |
| 2026-04-28 11:13 | 42.74930 | -8.05558 | 15788 ft | 420 kts | 302° |
| 2026-04-28 11:13 | 42.76536 | -8.08872 | 15024 ft | 416 kts | 302° |
| 2026-04-28 11:14 | 42.77926 | -8.11753 | 14365 ft | 412 kts | 302° |
| 2026-04-28 11:14 | 42.79345 | -8.14700 | 13671 ft | 408 kts | 301° |
| 2026-04-28 11:14 | 42.80903 | -8.17941 | 12892 ft | 404 kts | 301° |
| 2026-04-28 11:14 | 42.82421 | -8.21101 | 12121 ft | 400 kts | 301° |
| 2026-04-28 11:15 | 42.83941 | -8.24267 | 11368 ft | 396 kts | 301° |
| 2026-04-28 11:15 | 42.85427 | -8.27367 | 10628 ft | 393 kts | 301° |
| 2026-04-28 11:15 | 42.86926 | -8.30492 | 9889 ft | 390 kts | 301° |
| 2026-04-28 11:15 | 42.88402 | -8.33575 | 9125 ft | 387 kts | 302° |
| 2026-04-28 11:16 | 42.89869 | -8.36637 | 8373 ft | 384 kts | 302° |
| 2026-04-28 11:16 | 42.91321 | -8.39646 | 7629 ft | 381 kts | 304° |
| 2026-04-28 11:16 | 42.93163 | -8.42234 | 6901 ft | 381 kts | 322° |
| 2026-04-28 11:16 | 42.95499 | -8.43911 | 6201 ft | 380 kts | 341° |
| 2026-04-28 11:17 | 42.98051 | -8.44813 | 5553 ft | 376 kts | 348° |
| 2026-04-28 11:17 | 43.00574 | -8.45511 | 4942 ft | 372 kts | 349° |
| 2026-04-28 11:17 | 43.03027 | -8.46567 | 4303 ft | 368 kts | 333° |
| 2026-04-28 11:17 | 43.05005 | -8.48663 | 4043 ft | 349 kts | 311° |
| 2026-04-28 11:18 | 43.06205 | -8.51430 | 3840 ft | 330 kts | 289° |
| 2026-04-28 11:18 | 43.06611 | -8.54382 | 3619 ft | 312 kts | 276° |
| 2026-04-28 11:18 | 43.06895 | -8.57235 | 3483 ft | 290 kts | 285° |
| 2026-04-28 11:18 | 43.07718 | -8.59572 | 3503 ft | 259 kts | 313° |
| 2026-04-28 11:19 | 43.09082 | -8.60936 | 3505 ft | 231 kts | 343° |
| 2026-04-28 11:19 | 43.10643 | -8.61103 | 3501 ft | 228 kts | 15° |
| 2026-04-28 11:19 | 43.11975 | -8.60161 | 3497 ft | 216 kts | 47° |
| 2026-04-28 11:19 | 43.12637 | -8.58467 | 3499 ft | 193 kts | 82° |
| 2026-04-28 11:20 | 43.12529 | -8.56756 | 3516 ft | 171 kts | 104° |
| 2026-04-28 11:20 | 43.12110 | -8.55345 | 3482 ft | 151 kts | 114° |
| 2026-04-28 11:20 | 43.11543 | -8.53960 | 3530 ft | 188 kts | 118° |
| 2026-04-28 11:20 | 43.10863 | -8.52405 | 3495 ft | 188 kts | 119° |
| 2026-04-28 11:21 | 43.10175 | -8.50876 | 3483 ft | 188 kts | 119° |
| 2026-04-28 11:21 | 43.09495 | -8.49372 | 3479 ft | 188 kts | 119° |
| 2026-04-28 11:21 | 43.08627 | -8.48040 | 3533 ft | 193 kts | 144° |
| 2026-04-28 11:21 | 43.07357 | -8.47430 | 3474 ft | 196 kts | 163° |
| 2026-04-28 11:22 | 43.06024 | -8.47041 | 3566 ft | 196 kts | 166° |
| 2026-04-28 11:22 | 43.04705 | -8.46717 | 3666 ft | 186 kts | 168° |
| 2026-04-28 11:22 | 43.03516 | -8.46374 | 3684 ft | 171 kts | 164° |
| 2026-04-28 11:22 | 43.02389 | -8.45929 | 3423 ft | 163 kts | 158° |
| 2026-04-28 11:23 | 43.01361 | -8.45486 | 3249 ft | 153 kts | 161° |
| 2026-04-28 11:23 | 43.00321 | -8.45218 | 2917 ft | 152 kts | 163° |
| 2026-04-28 11:23 | 42.99293 | -8.44886 | 2590 ft | 148 kts | 159° |
| 2026-04-28 11:23 | 42.98323 | -8.44475 | 2433 ft | 144 kts | 158° |
| 2026-04-28 11:24 | 42.97345 | -8.44092 | 2413 ft | 149 kts | 162° |
| 2026-04-28 11:24 | 42.96308 | -8.43786 | 2131 ft | 153 kts | 165° |
| 2026-04-28 11:24 | 42.95288 | -8.43450 | 1961 ft | 144 kts | 162° |
| 2026-04-28 11:24 | 42.94341 | -8.43097 | 1746 ft | 143 kts | 160° |
| 2026-04-28 11:25 | 42.93379 | -8.42771 | 1609 ft | 141 kts | 163° |
| 2026-04-28 11:25 | 42.92435 | -8.42472 | 1443 ft | 136 kts | 159° |
| 2026-04-28 11:25 | 42.91503 | -8.42138 | 1280 ft | 139 kts | 162° |
| 2026-04-28 11:25 | 42.90893 | -8.41938 | 1211 ft | 132 kts | 162° |
| 2026-04-28 11:26 | 42.90126 | -8.41657 | 1193 ft | 90 kts | 163° |
| 2026-04-28 11:26 | 42.89796 | -8.41581 | 1191 ft | 16 kts | 217° |
| 2026-04-28 11:26 | 42.89751 | -8.41728 | 1194 ft | 17 kts | 249° |
| 2026-04-28 11:26 | 42.89702 | -8.41833 | 1200 ft | 6 kts | 246° |
| 2026-04-28 11:27 | 42.89696 | -8.41861 | 1202 ft | 3 kts | 256° |
| 2026-04-28 11:27 | 42.89693 | -8.41879 | 1203 ft | 1 kts | 256° |